RJSARJNW

Guest
Details From RJSA - AOMORI
To RJNW - NOTO
Flight Number -
Tags generated
Created
Modified
Stats Distance 275 nm / 509 km
Max Altitude 26,000 ft / 7,925 m
Waypoints 4
Social Downloads 0
Likes 0
Share VATSIM

Download

Looking for another format? Having issues loading an existing format? Contact us
Advertisement - Login to hide

Notes

Basic altitude profile: - Ascent Rate: 2500ft/min - Ascent Speed: 250kts - Cruise Altitude: 35000ft - Cruise Speed: 420kts - Descent Rate: 1500ft/min - Descent Speed: 250kts Options: - Use NATs: yes - Use PACOTS: yes - Use low airways: yes - Use high airways: yes

Route

RJSA NAMMY Y19 NI RJNW

ID Type Via Altitude Latitude Longitude Leg Dist Tot Dist Heading (true) Name
O RJSA APT - 0 ft / 0 m 40.73327˚ 140.68859˚ - 0 nm - AOMORI
NAMMY FIX - 22,800 ft / 6,949 m 39.80999˚ 139.87716˚ 66 nm 66 nm 214° / 214° -
NI NDB Y19 (AWY-HI) 26,000 ft / 7,925 m 38.06579˚ 138.40986˚ 125 nm 191 nm 214° / 213° SADO NDB
O RJNW APT - 0 ft / 0 m 37.29313˚ 136.96195˚ 83 nm 274 nm 236° / 236° NOTO

Altitude Profile

Advertisement - Login to hide

Weather


0- 5 10 15 20 25 30 35+ Temperature / ° C

Clouds and Precipitation
Forecast for 2017-12-17 12:00 UTC. Updated an hour ago

Ground ~20,000 ft ~40,000 ft Winds

RJSA

Details ICAO RJSA (AOJ)
Name AOMORI
Region Japan
Timezone Asia/Tokyo (UTC+9.0)
Stats Elevation 664 ft / 202 m (AMSL)
Location 40.733272° 140.688594°
Runways 1
Magnetic Variation 8.939° W

METAR

RJSA 170809Z 26011KT 0300 R24/0550V1000N SHSN VV002 M05/M06 Q1014 RMK A2997

Decode

TAF

TAF RJSA 170505Z 1706/1812 24013KT 6000 -SHSN FEW005 SCT010 BKN015 TEMPO 1706/1712 0700 SHSN FEW002 BKN005 BKN008 TEMPO 1712/1718 0500 SHSN VV003 TEMPO 1718/1800 0700 SHSN FEW002 BKN005 BKN008 TEMPO 1800/1806 3000 -SHSN TEMPO 1806/1812 0700 SHSN FEW002 BKN005 BKN008

Decode

Departure Runways

ID Width Length Bearing (true) Bearing (mag) Surface Threshold Offset Overrun Length
06 200 ft / 61 m 9,838 ft / 2,999 m 51.79° 60.73° Asphalt 0 ft / 0 m 200 ft / 61 m
24 200 ft / 61 m 9,838 ft / 2,999 m 231.81° 240.75° Asphalt 0 ft / 0 m 200 ft / 61 m

RJNW

Details ICAO RJNW (NTQ)
Name NOTO
Region Japan
Timezone Asia/Tokyo (UTC+9.0)
Stats Elevation 718 ft / 219 m (AMSL)
Location 37.293129° 136.961946°
Runways 1
Magnetic Variation 8.347° W

METAR

RJNW 170800Z 32004KT 260V040 5000 -SHSN FEW000 SCT030 BKN050 M02/M02 Q1020

Decode

TAF

Not found

Destination Runways

ID Width Length Bearing (true) Bearing (mag) Surface Threshold Offset Overrun Length
07 148 ft / 45 m 6,556 ft / 1,998 m 66.69° 75.04° Asphalt 0 ft / 0 m 190 ft / 58 m
25 148 ft / 45 m 6,556 ft / 1,998 m 246.70° 255.05° Asphalt 0 ft / 0 m 195 ft / 59 m

Approach Navaids

Runway Type Ident Frequency Range Bearing (true) Bearing (mag) Slope Elevation
25 Localiser INT 108.95 MHz 18 nm / 33 km 246.84° 255.18° - 721 ft / 220 m (AMSL)
25 Glidescope INT 108.95 MHz 10 nm / 19 km 246.70° 255.04° 3.00° 721 ft / 220 m (AMSL)
25 DME INT 108.95 MHz 18 nm / 33 km - - - 721 ft / 220 m (AMSL)